首页
METAR-TAF:

METAR-TAF

机场 :

科纳克里国际机场

科納克里, 几内亚

纬度: 09-34N, 经度: 013-37W, 海拔: 26米

当前天气观测

该预报发布于40分钟前的21:00 UTC
风速4节,风向西
温度 28°C
湿度 84%
气压 1012 hPa
能见度10公里或以上
少量云层高于1500英尺

METAR: GUCY 252100Z 26004KT 9999 FEW015 28/25 Q1012 NOSIG

时间: 21:40 (21:40 UTC)

预报

该预报发布于4小时和40分钟前的17:00 UTC
预报有效从25日的 18点(UTC)到 26日的 24点(UTC)
风速6节,风向西南
能见度10公里或以上
散云层高于1500英尺
散云层高于11000英尺
短暂存在
从 26日的 04点(UTC)到 26日的 08点(UTC)
风速3节,风向多变

TAF: GUCY 251700Z 2518/2624 23006KT 9999 SCT015 SCT110 TEMPO 2604/2608 VRB03KT

超过4000个机场的气象观测和天气预报(METAR&TAF报告)。

可查询的气象台以黄色和红色小点在地图上表示。

将鼠标移到小点上方,可查看气象台名称。

然后点击查看天气观测和预报。

如需切换地图:点击带黑十字的绿色按钮放大地图;点击带横线的绿色按钮缩小地图;或者点击绿色箭头查看邻近地区的地图。


METAR-TAF: